Dawes, West Virginia
Current Conditions -  °F | °C
As of 11:54 AM on Sunday 28 Dec 2014 (Local Time) from KCRW Reporting Station
Light Rain Light Rain  
Wind Chill: 44°   Ceiling: 500
Heat Index: 46°   Visibility: 5mi
Dew Point: 44°   Wind: 5mph
Humidity: 93%   Direction: 340°NNW
Pressure: 30.05"   Gusts: NA
Location:  38.14°N, 81.45°W
Report Text: KCRW 281654Z 34004KT 5SM -RA BR BKN005 OVC011 08/07 A3005 RMK AO2 RAB22 SLP176 VLY FG P0001 T00780067 $
Loading
Personal Weather Stations






























Interactive Weather Map New forecast layout! Learn more

10-Day Weather Forecast

Advertisements
Track Severe Weather on mobile